Terminal Aerodrome Forecast
Issued by NWS Twin Cities, MN

Home | Current Version | Previous Version | Graphics & Text | Print | Product List | Glossary On
Versions: 1 2 3 4 5 6 7 8 9 10 11 12 13 14 15 16 17 18 19
000
FTUS43 KMPX 252342
TAFSTC
TAF
KSTC 252342Z 2600/2624 29010KT P6SM FEW040 BKN060
     FM260300 30004KT P6SM FEW040
     FM260600 VRB02KT P6SM SKC
      TEMPO 2609/2612 4SM BR
     FM261800 18006KT P6SM SCT250=

USA.gov is the U.S. government's official web portal to all federal, state and local government web resources and services.